createdAt,value
2019-03-10T00:00:13.151Z,1003.02
2019-03-10T00:01:13.166Z,1002.95
2019-03-10T00:02:13.180Z,1002.92
2019-03-10T00:03:13.195Z,1002.95
2019-03-10T00:04:13.211Z,1002.89
2019-03-10T00:05:13.226Z,1002.95
2019-03-10T00:06:13.242Z,1002.91
2019-03-10T00:07:13.255Z,1002.92
2019-03-10T00:08:13.271Z,1002.95
2019-03-10T00:09:13.299Z,1002.96
2019-03-10T00:10:13.301Z,1002.86
2019-03-10T00:11:13.315Z,1002.92
2019-03-10T00:12:13.330Z,1002.82
2019-03-10T00:13:13.344Z,1002.99
2019-03-10T00:15:13.375Z,1002.92
2019-03-10T00:16:13.390Z,1002.99
2019-03-10T00:17:13.404Z,1002.91
2019-03-10T00:18:13.420Z,1003
2019-03-10T00:19:13.435Z,1003.03
2019-03-10T00:20:13.450Z,1002.97
2019-03-10T00:21:13.464Z,1003.08
2019-03-10T00:22:13.480Z,1002.96
2019-03-10T00:23:13.494Z,1002.97
2019-03-10T00:24:13.509Z,1003.01
2019-03-10T00:25:13.523Z,1002.94
2019-03-10T00:26:13.539Z,1002.95
2019-03-10T00:27:13.557Z,1003.01
2019-03-10T00:28:13.571Z,1003.07
2019-03-10T00:29:13.587Z,1002.93
2019-03-10T00:31:13.614Z,1003
2019-03-10T00:32:13.627Z,1003.08
2019-03-10T00:33:13.644Z,1002.97
2019-03-10T00:34:13.661Z,1002.96
2019-03-10T00:35:13.673Z,1003.06
2019-03-10T00:36:13.689Z,1003.09
2019-03-10T00:37:13.726Z,1003.1
2019-03-10T00:38:13.736Z,1003.05
2019-03-10T00:39:13.735Z,1003.1
2019-03-10T00:40:13.761Z,1003.06
2019-03-10T00:41:13.761Z,1003.14
2019-03-10T00:42:13.775Z,1003.16
2019-03-10T00:43:13.789Z,1003.22
2019-03-10T00:44:13.805Z,1003.24
2019-03-10T00:45:13.820Z,1003.2
2019-03-10T00:47:13.849Z,1003.18
2019-03-10T00:48:13.864Z,1003.22
2019-03-10T00:49:13.879Z,1003.3
2019-03-10T00:50:13.894Z,1003.24
2019-03-10T00:51:13.909Z,1003.29
2019-03-10T00:52:13.923Z,1003.12
2019-03-10T00:53:13.947Z,1003.08
2019-03-10T00:54:13.952Z,1003.08
2019-03-10T00:55:13.970Z,1003.11
2019-03-10T00:56:13.982Z,1003.12
2019-03-10T00:57:13.997Z,1003.15
2019-03-10T00:58:14.011Z,1003.17
2019-03-10T00:59:14.026Z,1003.06
2019-03-10T01:00:14.041Z,1003.15
2019-03-10T01:01:14.054Z,1003.12
2019-03-10T01:03:14.084Z,1003.13
2019-03-10T01:04:14.100Z,1003.06
2019-03-10T01:05:14.114Z,1003.08
2019-03-10T01:06:14.129Z,1003.1
2019-03-10T01:07:14.144Z,1003.13
2019-03-10T01:08:14.158Z,1003.04
2019-03-10T01:09:14.173Z,1003.02
2019-03-10T01:10:14.188Z,1002.99
2019-03-10T01:11:14.203Z,1002.96
2019-03-10T01:12:14.217Z,1003.01
2019-03-10T01:13:14.232Z,1003
2019-03-10T01:14:14.590Z,1002.98
2019-03-10T01:15:14.363Z,1002.95
2019-03-10T01:16:14.296Z,1002.94
2019-03-10T01:18:14.307Z,1002.93
2019-03-10T01:19:14.321Z,1002.99
2019-03-10T01:20:14.337Z,1002.93
2019-03-10T01:21:14.350Z,1003
2019-03-10T01:22:14.365Z,1003.11
2019-03-10T01:23:14.379Z,1003.05
2019-03-10T01:24:14.395Z,1002.96
2019-03-10T01:25:14.409Z,1003.05
2019-03-10T01:26:14.423Z,1003.01
2019-03-10T01:27:14.442Z,1002.95
2019-03-10T01:28:14.453Z,1002.87
2019-03-10T01:29:14.474Z,1002.87
2019-03-10T01:30:14.482Z,1002.81
2019-03-10T01:31:14.496Z,1002.8
2019-03-10T01:32:14.512Z,1002.8
2019-03-10T01:33:14.526Z,1002.74
2019-03-10T01:34:14.540Z,1002.82
2019-03-10T01:35:14.558Z,1002.9
2019-03-10T01:36:14.569Z,1002.77
2019-03-10T01:37:14.584Z,1002.85
2019-03-10T01:38:14.601Z,1002.85
2019-03-10T01:39:14.614Z,1002.76
2019-03-10T01:40:14.628Z,1002.82
2019-03-10T01:41:14.643Z,1002.87
2019-03-10T01:42:14.657Z,1002.84
2019-03-10T01:43:14.672Z,1002.83
2019-03-10T01:44:14.687Z,1002.84
2019-03-10T01:45:14.701Z,1002.78
2019-03-10T01:46:14.716Z,1002.8
2019-03-10T01:47:14.731Z,1002.75
2019-03-10T01:48:14.745Z,1002.74
2019-03-10T01:50:14.880Z,1002.61
2019-03-10T01:51:14.790Z,1002.68
2019-03-10T01:52:14.804Z,1002.65
2019-03-10T01:53:24.992Z,1002.61
2019-03-10T01:54:14.897Z,1002.64
2019-03-10T01:55:14.848Z,1002.69
2019-03-10T01:56:14.861Z,1002.72
2019-03-10T01:57:14.876Z,1002.67
2019-03-10T01:58:14.891Z,1002.75
2019-03-10T01:59:14.906Z,1002.74
2019-03-10T02:00:14.920Z,1002.69
2019-03-10T02:01:14.936Z,1002.64
2019-03-10T02:02:14.950Z,1002.64
2019-03-10T02:03:14.964Z,1002.66
2019-03-10T02:04:14.978Z,1002.69
2019-03-10T02:06:15.009Z,1002.65
2019-03-10T02:07:15.022Z,1002.72
2019-03-10T02:08:15.037Z,1002.65
2019-03-10T02:09:15.052Z,1002.65
2019-03-10T02:10:15.066Z,1002.61
2019-03-10T02:11:15.080Z,1002.59
2019-03-10T02:12:15.095Z,1002.63
2019-03-10T02:13:15.113Z,1002.59
2019-03-10T02:14:15.128Z,1002.56
2019-03-10T02:15:15.140Z,1002.52
2019-03-10T02:16:15.157Z,1002.55
2019-03-10T02:17:15.169Z,1002.61
2019-03-10T02:18:15.184Z,1002.63
2019-03-10T02:19:15.199Z,1002.56
2019-03-10T02:20:15.213Z,1002.55
2019-03-10T02:22:15.244Z,1002.54
2019-03-10T02:23:15.257Z,1002.52
2019-03-10T02:24:23.342Z,1002.53
2019-03-10T02:25:15.286Z,1002.54
2019-03-10T02:26:15.300Z,1002.65
2019-03-10T02:27:15.316Z,1002.6
2019-03-10T02:28:15.331Z,1002.55
2019-03-10T02:29:15.344Z,1002.56
2019-03-10T02:30:15.364Z,1002.66
2019-03-10T02:31:15.375Z,1002.61
2019-03-10T02:32:15.388Z,1002.61
2019-03-10T02:33:15.404Z,1002.6
2019-03-10T02:34:15.417Z,1002.63
2019-03-10T02:35:15.434Z,1002.64
2019-03-10T02:36:15.449Z,1002.55
2019-03-10T02:38:15.476Z,1002.59
2019-03-10T02:39:15.492Z,1002.47
2019-03-10T02:40:15.506Z,1002.47
2019-03-10T02:41:15.520Z,1002.45
2019-03-10T02:42:15.535Z,1002.44
2019-03-10T02:43:15.549Z,1002.41
2019-03-10T02:44:15.562Z,1002.48
2019-03-10T02:45:15.578Z,1002.43
2019-03-10T02:46:15.601Z,1002.36
2019-03-10T02:47:15.614Z,1002.35
2019-03-10T02:48:15.631Z,1002.37
2019-03-10T02:49:15.642Z,1002.22
2019-03-10T02:50:15.651Z,1002.26
2019-03-10T02:51:15.674Z,1002.24
2019-03-10T02:53:15.696Z,1002.22
2019-03-10T02:54:15.709Z,1002.21
2019-03-10T02:55:15.728Z,1002.16
2019-03-10T02:56:15.746Z,1002.22
2019-03-10T02:57:15.753Z,1002.19
2019-03-10T02:58:15.766Z,1002.13
2019-03-10T02:59:15.788Z,1002.23
2019-03-10T03:00:15.797Z,1002.13
2019-03-10T03:01:15.811Z,1002.17
2019-03-10T03:02:15.826Z,1002.16
2019-03-10T03:03:15.841Z,1002.19
2019-03-10T03:04:15.858Z,1002.21
2019-03-10T03:05:15.869Z,1002.15
2019-03-10T03:06:15.885Z,1002.2
2019-03-10T03:07:15.899Z,1002.22
2019-03-10T03:08:16.995Z,1002.22
2019-03-10T03:09:15.926Z,1002.2
2019-03-10T03:10:15.941Z,1002.16
2019-03-10T03:11:15.964Z,1002.15
2019-03-10T03:12:15.970Z,1002.14
2019-03-10T03:13:15.986Z,1002.1
2019-03-10T03:14:16.003Z,1002.13
2019-03-10T03:15:16.015Z,1002.12
2019-03-10T03:16:16.028Z,1002.07
2019-03-10T03:17:16.043Z,1002.02
2019-03-10T03:18:16.057Z,1001.99
2019-03-10T03:19:16.071Z,1001.92
2019-03-10T03:20:16.085Z,1001.99
2019-03-10T03:21:16.100Z,1002.07
2019-03-10T03:22:16.115Z,1002.05
2019-03-10T03:23:16.132Z,1001.99
2019-03-10T03:25:16.168Z,1001.97
2019-03-10T03:26:16.181Z,1001.88
2019-03-10T03:27:16.195Z,1001.88
2019-03-10T03:28:16.201Z,1001.85
2019-03-10T03:29:16.218Z,1001.82
2019-03-10T03:30:16.266Z,1001.89
2019-03-10T03:31:16.247Z,1001.88
2019-03-10T03:32:16.261Z,1001.87
2019-03-10T03:33:16.277Z,1001.84
2019-03-10T03:34:16.289Z,1001.9
2019-03-10T03:35:16.303Z,1001.93
2019-03-10T03:36:16.434Z,1001.96
2019-03-10T03:37:16.347Z,1001.95
2019-03-10T03:38:16.346Z,1001.91
2019-03-10T03:39:16.368Z,1001.87
2019-03-10T03:41:16.395Z,1001.84
2019-03-10T03:42:16.409Z,1001.8
2019-03-10T03:43:16.420Z,1001.82
2019-03-10T03:44:16.443Z,1001.82
2019-03-10T03:45:16.453Z,1001.82
2019-03-10T03:46:16.462Z,1001.8
2019-03-10T03:47:16.476Z,1001.78
2019-03-10T03:48:16.492Z,1001.74
2019-03-10T03:49:16.506Z,1001.82
2019-03-10T03:50:16.520Z,1001.8
2019-03-10T03:51:16.533Z,1001.73
2019-03-10T03:52:16.555Z,1001.67
2019-03-10T03:53:16.562Z,1001.77
2019-03-10T03:54:16.578Z,1001.73
2019-03-10T03:55:16.598Z,1001.81
2019-03-10T03:57:16.627Z,1001.79
2019-03-10T03:58:16.636Z,1001.7
2019-03-10T03:59:16.650Z,1001.78
2019-03-10T04:00:16.663Z,1001.79
2019-03-10T04:01:16.679Z,1001.75
2019-03-10T04:02:16.693Z,1001.75
2019-03-10T04:03:16.708Z,1001.75
2019-03-10T04:04:16.730Z,1001.71
2019-03-10T04:05:16.763Z,1001.74
2019-03-10T04:06:16.771Z,1001.78
2019-03-10T04:07:16.765Z,1001.8
2019-03-10T04:08:16.779Z,1001.71
2019-03-10T04:09:16.794Z,1001.77
2019-03-10T04:10:16.810Z,1001.76
2019-03-10T04:11:16.822Z,1001.7
2019-03-10T04:13:16.851Z,1001.71
2019-03-10T04:14:16.866Z,1001.76
2019-03-10T04:15:16.880Z,1001.76
2019-03-10T04:16:16.895Z,1001.82
2019-03-10T04:17:16.915Z,1001.8
2019-03-10T04:18:16.922Z,1001.74
2019-03-10T04:19:16.938Z,1001.82
2019-03-10T04:20:16.952Z,1001.76
2019-03-10T04:21:16.966Z,1001.76
2019-03-10T04:22:16.981Z,1001.77
2019-03-10T04:23:16.998Z,1001.79
2019-03-10T04:24:17.010Z,1001.76
2019-03-10T04:25:17.024Z,1001.84
2019-03-10T04:26:17.039Z,1001.75
2019-03-10T04:28:17.068Z,1001.73
2019-03-10T04:29:17.082Z,1001.83
2019-03-10T04:30:17.098Z,1001.76
2019-03-10T04:31:17.117Z,1001.75
2019-03-10T04:32:17.126Z,1001.71
2019-03-10T04:33:17.139Z,1001.63
2019-03-10T04:34:17.154Z,1001.64
2019-03-10T04:35:17.168Z,1001.67
2019-03-10T04:36:17.182Z,1001.71
2019-03-10T04:37:17.196Z,1001.74
2019-03-10T04:38:17.212Z,1001.74
2019-03-10T04:39:17.226Z,1001.78
2019-03-10T04:40:17.239Z,1001.73
2019-03-10T04:41:17.255Z,1001.66
2019-03-10T04:42:17.268Z,1001.74
2019-03-10T04:43:17.283Z,1001.76
2019-03-10T04:44:17.297Z,1001.83
2019-03-10T04:45:17.312Z,1001.78
2019-03-10T04:46:17.327Z,1001.8
2019-03-10T04:47:17.340Z,1001.78
2019-03-10T04:48:17.361Z,1001.84
2019-03-10T04:49:17.369Z,1001.83
2019-03-10T04:50:17.384Z,1001.82
2019-03-10T04:51:17.398Z,1001.82
2019-03-10T04:52:17.415Z,1001.82
2019-03-10T04:53:17.430Z,1001.78
2019-03-10T04:54:17.442Z,1001.81
2019-03-10T04:55:17.456Z,1001.82
2019-03-10T04:56:17.473Z,1001.84
2019-03-10T04:57:17.509Z,1001.87
2019-03-10T04:58:17.499Z,1001.85
2019-03-10T05:00:17.529Z,1001.86
2019-03-10T05:01:17.544Z,1001.87
2019-03-10T05:02:17.558Z,1001.87
2019-03-10T05:03:17.573Z,1001.82
2019-03-10T05:04:17.588Z,1001.77
2019-03-10T05:05:17.603Z,1001.78
2019-03-10T05:06:17.616Z,1001.85
2019-03-10T05:07:17.633Z,1001.79
2019-03-10T05:08:17.648Z,1001.78
2019-03-10T05:09:17.660Z,1001.81
2019-03-10T05:10:17.675Z,1001.83
2019-03-10T05:11:17.698Z,1001.83
2019-03-10T05:12:17.705Z,1001.91
2019-03-10T05:13:17.719Z,1001.89
2019-03-10T05:14:17.734Z,1001.91
2019-03-10T05:16:17.764Z,1001.93
2019-03-10T05:17:17.778Z,1001.96
2019-03-10T05:18:17.793Z,1001.9
2019-03-10T05:19:17.808Z,1001.91
2019-03-10T05:20:17.822Z,1001.87
2019-03-10T05:21:17.839Z,1001.91
2019-03-10T05:22:17.852Z,1001.88
2019-03-10T05:23:17.868Z,1001.82
2019-03-10T05:24:17.881Z,1001.83
2019-03-10T05:25:17.898Z,1001.89
2019-03-10T05:26:17.912Z,1001.79
2019-03-10T05:27:17.936Z,1001.77
2019-03-10T05:28:17.943Z,1001.77
2019-03-10T05:29:17.956Z,1001.81
2019-03-10T05:30:17.971Z,1001.76
2019-03-10T05:32:18.000Z,1001.77
2019-03-10T05:33:18.015Z,1001.73
2019-03-10T05:34:18.030Z,1001.73
2019-03-10T05:35:18.045Z,1001.71
2019-03-10T05:36:18.059Z,1001.72
2019-03-10T05:37:18.074Z,1001.75
2019-03-10T05:38:18.090Z,1001.8
2019-03-10T05:39:18.103Z,1001.73
2019-03-10T05:40:18.118Z,1001.75
2019-03-10T05:41:18.134Z,1001.75
2019-03-10T05:42:18.148Z,1001.75
2019-03-10T05:43:18.163Z,1001.74
2019-03-10T05:44:18.178Z,1001.78
2019-03-10T05:45:18.193Z,1001.78
2019-03-10T05:46:18.206Z,1001.76
2019-03-10T05:48:18.237Z,1001.65
2019-03-10T05:49:18.252Z,1001.62
2019-03-10T05:50:18.266Z,1001.6
2019-03-10T05:51:18.281Z,1001.57
2019-03-10T05:52:18.297Z,1001.57
2019-03-10T05:53:18.320Z,1001.59
2019-03-10T05:54:18.326Z,1001.56
2019-03-10T05:55:18.341Z,1001.62
2019-03-10T05:56:18.356Z,1001.52
2019-03-10T05:57:18.370Z,1001.53
2019-03-10T05:58:18.385Z,1001.48
2019-03-10T05:59:18.404Z,1001.48
2019-03-10T06:00:18.417Z,1001.48
2019-03-10T06:01:18.434Z,1001.43
2019-03-10T06:03:18.461Z,1001.42
2019-03-10T06:04:18.496Z,1001.42
2019-03-10T06:05:18.491Z,1001.4
2019-03-10T06:06:18.507Z,1001.45
2019-03-10T06:07:18.521Z,1001.41
2019-03-10T06:08:18.535Z,1001.29
2019-03-10T06:09:18.551Z,1001.25
2019-03-10T06:10:18.567Z,1001.26
2019-03-10T06:11:18.581Z,1001.22
2019-03-10T06:12:18.599Z,1001.18
2019-03-10T06:13:18.611Z,1001.27
2019-03-10T06:14:18.627Z,1001.27
2019-03-10T06:15:18.641Z,1001.27
2019-03-10T06:16:18.657Z,1001.24
2019-03-10T06:17:18.673Z,1001.3
2019-03-10T06:18:18.689Z,1001.18
2019-03-10T06:19:18.709Z,1001.2
2019-03-10T06:20:18.719Z,1001.2
2019-03-10T06:21:18.737Z,1001.16
2019-03-10T06:22:18.749Z,1001.15
2019-03-10T06:23:18.764Z,1001.08
2019-03-10T06:24:18.783Z,1001.1
2019-03-10T06:25:18.807Z,1001.13
2019-03-10T06:26:18.810Z,1001.09
2019-03-10T06:27:18.827Z,1001.07
2019-03-10T06:28:18.842Z,1001.05
2019-03-10T06:29:18.857Z,1001.07
2019-03-10T06:30:18.873Z,1001.13
2019-03-10T06:31:18.888Z,1001.09
2019-03-10T06:32:18.904Z,1001.12
2019-03-10T06:33:18.919Z,1001.14
2019-03-10T06:35:18.949Z,1001.05
2019-03-10T06:36:18.968Z,1001.05
2019-03-10T06:37:18.979Z,1001.06
2019-03-10T06:38:18.995Z,1001.09
2019-03-10T06:39:19.011Z,1001.1
2019-03-10T06:40:19.026Z,1001.01
2019-03-10T06:41:19.040Z,1001.02
2019-03-10T06:42:19.057Z,1001.08
2019-03-10T06:43:19.074Z,1001
2019-03-10T06:44:20.940Z,1001.09
2019-03-10T06:45:19.107Z,1001.13
2019-03-10T06:46:19.125Z,1001.1
2019-03-10T06:47:19.143Z,1001.18
2019-03-10T06:48:19.161Z,1001.16
2019-03-10T06:49:19.186Z,1001.14
2019-03-10T06:51:19.241Z,1001.12
2019-03-10T06:52:19.249Z,1001.19
2019-03-10T06:53:19.270Z,1001.16
2019-03-10T06:54:19.288Z,1001.23
2019-03-10T06:55:19.302Z,1001.25
2019-03-10T06:56:19.322Z,1001.21
2019-03-10T06:57:19.346Z,1001.19
2019-03-10T06:58:19.366Z,1001.17
2019-03-10T06:59:19.386Z,1001.17
2019-03-10T07:00:19.406Z,1001.16
2019-03-10T07:01:19.432Z,1001.24
2019-03-10T07:02:19.447Z,1001.11
2019-03-10T07:03:19.468Z,1001.15
2019-03-10T07:04:19.488Z,1001.19
2019-03-10T07:05:19.510Z,1001.19
2019-03-10T07:07:19.550Z,1001.2
2019-03-10T07:08:19.571Z,1001.23
2019-03-10T07:09:19.591Z,1001.15
2019-03-10T07:10:19.611Z,1001.2
2019-03-10T07:11:19.633Z,1001.18
2019-03-10T07:12:19.654Z,1001.07
2019-03-10T07:13:19.674Z,1001.11
2019-03-10T07:14:19.695Z,1001.02
2019-03-10T07:15:19.817Z,1001.03
2019-03-10T07:16:19.736Z,1001.01
2019-03-10T07:17:19.756Z,1001
2019-03-10T07:18:19.787Z,1001.02
2019-03-10T07:19:19.803Z,1001.04
2019-03-10T07:20:19.819Z,1001.03
2019-03-10T07:21:19.839Z,1001.01
2019-03-10T07:23:19.881Z,1000.96
2019-03-10T07:24:19.899Z,1000.95
2019-03-10T07:25:19.918Z,1000.95
2019-03-10T07:26:19.940Z,1000.93
2019-03-10T07:27:19.958Z,1000.9
2019-03-10T07:28:19.977Z,1000.91
2019-03-10T07:29:19.997Z,1000.98
2019-03-10T07:30:20.019Z,1000.95
2019-03-10T07:31:20.036Z,1000.92
2019-03-10T07:32:20.064Z,1000.91
2019-03-10T07:33:20.108Z,1000.86
2019-03-10T07:34:20.093Z,1000.87
2019-03-10T07:35:20.112Z,1000.87
2019-03-10T07:36:20.131Z,1000.87
2019-03-10T07:38:20.169Z,1000.82
2019-03-10T07:39:20.186Z,1000.76
2019-03-10T07:40:20.205Z,1000.77
2019-03-10T07:41:20.224Z,1000.76
2019-03-10T07:42:20.242Z,1000.77
2019-03-10T07:43:20.260Z,1000.79
2019-03-10T07:44:20.378Z,1000.84
2019-03-10T07:45:20.297Z,1000.85
2019-03-10T07:46:20.314Z,1000.78
2019-03-10T07:47:20.390Z,1000.75
2019-03-10T07:48:20.354Z,1000.8
2019-03-10T07:49:20.388Z,1000.74
2019-03-10T07:50:20.387Z,1000.77
2019-03-10T07:51:20.405Z,1000.76
2019-03-10T07:52:20.794Z,1000.7
2019-03-10T07:53:20.444Z,1000.7
2019-03-10T07:54:20.459Z,1000.68
2019-03-10T07:55:20.480Z,1000.67
2019-03-10T07:56:20.496Z,1000.65
2019-03-10T07:57:20.517Z,1000.68
2019-03-10T07:58:20.532Z,1000.67
2019-03-10T07:59:20.558Z,1000.72
2019-03-10T08:00:20.568Z,1000.68
2019-03-10T08:01:20.585Z,1000.7
2019-03-10T08:02:20.604Z,1000.65
2019-03-10T08:03:20.622Z,1000.61
2019-03-10T08:04:20.641Z,1000.56
2019-03-10T08:05:20.658Z,1000.55
2019-03-10T08:06:20.677Z,1000.56
2019-03-10T08:07:20.696Z,1000.53
2019-03-10T08:08:20.713Z,1000.45
2019-03-10T08:10:20.753Z,1000.5
2019-03-10T08:11:20.769Z,1000.54
2019-03-10T08:12:20.787Z,1000.56
2019-03-10T08:13:20.806Z,1000.48
2019-03-10T08:14:20.825Z,1000.53
2019-03-10T08:15:20.844Z,1000.49
2019-03-10T08:16:20.862Z,1000.46
2019-03-10T08:17:20.881Z,1000.44
2019-03-10T08:18:20.906Z,1000.43
2019-03-10T08:19:20.918Z,1000.42
2019-03-10T08:20:20.938Z,1000.41
2019-03-10T08:21:20.960Z,1000.36
2019-03-10T08:22:20.976Z,1000.36
2019-03-10T08:23:21.023Z,1000.33
2019-03-10T08:24:21.015Z,1000.3
2019-03-10T08:26:21.052Z,1000.24
2019-03-10T08:27:21.070Z,1000.19
2019-03-10T08:28:21.093Z,1000.2
2019-03-10T08:29:21.110Z,1000.11
2019-03-10T08:30:21.129Z,1000.13
2019-03-10T08:31:21.147Z,1000.1
2019-03-10T08:32:21.167Z,1000.14
2019-03-10T08:33:21.188Z,1000.08
2019-03-10T08:34:21.205Z,1000.05
2019-03-10T08:35:21.224Z,999.98
2019-03-10T08:36:21.244Z,999.92
2019-03-10T08:37:21.264Z,999.97
2019-03-10T08:38:21.283Z,999.92
2019-03-10T08:39:21.302Z,999.9
2019-03-10T08:40:21.322Z,999.84
2019-03-10T08:42:21.361Z,999.84
2019-03-10T08:43:21.387Z,999.83
2019-03-10T08:44:21.401Z,999.77
2019-03-10T08:45:21.419Z,999.71
2019-03-10T08:46:21.439Z,999.73
2019-03-10T08:47:21.462Z,999.69
2019-03-10T08:48:21.530Z,999.66
2019-03-10T08:49:21.498Z,999.69
2019-03-10T08:50:21.518Z,999.67
2019-03-10T08:51:21.538Z,999.67
2019-03-10T08:52:21.556Z,999.66
2019-03-10T08:53:21.576Z,999.7
2019-03-10T08:54:21.597Z,999.69
2019-03-10T08:55:21.615Z,999.65
2019-03-10T08:56:21.634Z,999.66
2019-03-10T08:58:21.673Z,999.69
2019-03-10T08:59:21.693Z,999.61
2019-03-10T09:00:21.712Z,999.66
2019-03-10T09:01:21.731Z,999.59
2019-03-10T09:02:21.753Z,999.55
2019-03-10T09:03:21.773Z,999.56
2019-03-10T09:04:21.790Z,999.55
2019-03-10T09:05:21.809Z,999.56
2019-03-10T09:06:21.829Z,999.61
2019-03-10T09:07:21.848Z,999.55
2019-03-10T09:08:21.867Z,999.56
2019-03-10T09:09:21.887Z,999.53
2019-03-10T09:10:21.907Z,999.53
2019-03-10T09:11:21.926Z,999.45
2019-03-10T09:13:21.970Z,999.44
2019-03-10T09:14:21.983Z,999.44
2019-03-10T09:15:22.003Z,999.44
2019-03-10T09:16:22.022Z,999.45
2019-03-10T09:17:22.051Z,999.34
2019-03-10T09:18:22.061Z,999.33
2019-03-10T09:19:22.080Z,999.36
2019-03-10T09:20:22.099Z,999.4
2019-03-10T09:21:22.118Z,999.36
2019-03-10T09:22:22.138Z,999.34
2019-03-10T09:23:22.155Z,999.29
2019-03-10T09:24:22.175Z,999.3
2019-03-10T09:25:22.193Z,999.28
2019-03-10T09:26:22.214Z,999.22
2019-03-10T09:27:22.231Z,999.2
2019-03-10T09:28:22.251Z,999.16
2019-03-10T09:29:22.269Z,999.11
2019-03-10T09:30:22.289Z,999.14
2019-03-10T09:31:22.308Z,999.08
2019-03-10T09:32:22.328Z,999.06
2019-03-10T09:33:22.346Z,999.05
2019-03-10T09:34:22.365Z,998.96
2019-03-10T09:35:22.384Z,998.94
2019-03-10T09:36:22.402Z,998.89
2019-03-10T09:37:22.422Z,998.85
2019-03-10T09:38:22.445Z,998.88
2019-03-10T09:39:22.461Z,998.88
2019-03-10T09:40:22.479Z,998.84
2019-03-10T09:41:22.501Z,998.81
2019-03-10T09:42:22.518Z,998.86
2019-03-10T09:43:22.536Z,998.81
2019-03-10T09:45:22.577Z,998.78
2019-03-10T09:46:22.593Z,998.76
2019-03-10T09:47:22.611Z,998.76
2019-03-10T09:48:22.640Z,998.69
2019-03-10T09:49:22.653Z,998.69
2019-03-10T09:50:22.671Z,998.72
2019-03-10T09:51:22.688Z,998.68
2019-03-10T09:52:22.707Z,998.66
2019-03-10T09:53:22.741Z,998.62
2019-03-10T09:54:22.745Z,998.6
2019-03-10T09:55:22.764Z,998.58
2019-03-10T09:56:22.783Z,998.57
2019-03-10T09:57:22.803Z,998.57
2019-03-10T09:58:22.821Z,998.59
2019-03-10T09:59:22.840Z,998.61
2019-03-10T10:01:22.878Z,998.59
2019-03-10T10:02:22.896Z,998.6
2019-03-10T10:03:22.915Z,998.59
2019-03-10T10:04:22.938Z,998.54
2019-03-10T10:05:22.953Z,998.58
2019-03-10T10:06:22.975Z,998.64
2019-03-10T10:07:22.991Z,998.56
2019-03-10T10:08:23.011Z,998.51
2019-03-10T10:09:23.030Z,998.38
2019-03-10T10:10:23.048Z,998.39
2019-03-10T10:11:23.068Z,998.34
2019-03-10T10:12:23.087Z,998.31
2019-03-10T10:13:23.105Z,998.33
2019-03-10T10:14:23.125Z,998.3
2019-03-10T10:15:23.145Z,998.28
2019-03-10T10:17:23.182Z,998.2
2019-03-10T10:18:23.202Z,998.2
2019-03-10T10:19:23.221Z,998.22
2019-03-10T10:20:23.239Z,998.16
2019-03-10T10:21:23.359Z,998.18
2019-03-10T10:22:23.279Z,998.18
2019-03-10T10:23:23.299Z,998.2
2019-03-10T10:24:23.319Z,998.22
2019-03-10T10:25:23.336Z,998.17
2019-03-10T10:26:23.355Z,998.14
2019-03-10T10:27:23.383Z,998.1
2019-03-10T10:28:23.399Z,998.04
2019-03-10T10:29:23.412Z,998.03
2019-03-10T10:30:23.433Z,998.07
2019-03-10T10:31:23.450Z,998
2019-03-10T10:33:23.488Z,997.95
2019-03-10T10:34:23.508Z,997.85
2019-03-10T10:35:23.537Z,997.83
2019-03-10T10:36:23.545Z,997.86
2019-03-10T10:37:23.565Z,997.88
2019-03-10T10:38:23.583Z,997.91
2019-03-10T10:39:23.602Z,997.85
2019-03-10T10:40:23.621Z,997.78
2019-03-10T10:41:23.642Z,997.73
2019-03-10T10:42:23.659Z,997.73
2019-03-10T10:43:23.678Z,997.75
2019-03-10T10:44:23.698Z,997.72
2019-03-10T10:45:23.717Z,997.63
2019-03-10T10:46:23.736Z,997.66
2019-03-10T10:48:23.775Z,997.63
2019-03-10T10:49:23.808Z,997.62
2019-03-10T10:50:23.830Z,997.58
2019-03-10T10:51:23.831Z,997.54
2019-03-10T10:52:23.851Z,997.56
2019-03-10T10:53:23.896Z,997.58
2019-03-10T10:54:23.888Z,997.57
2019-03-10T10:55:23.928Z,997.56
2019-03-10T10:56:23.929Z,997.51
2019-03-10T10:57:23.944Z,997.52
2019-03-10T10:58:23.964Z,997.49
2019-03-10T10:59:23.982Z,997.53
2019-03-10T11:00:24.008Z,997.55
2019-03-10T11:01:24.021Z,997.51
2019-03-10T11:02:24.038Z,997.52
2019-03-10T11:03:24.058Z,997.47
2019-03-10T11:04:24.076Z,997.46
2019-03-10T11:05:24.095Z,997.5
2019-03-10T11:06:24.113Z,997.44
2019-03-10T11:07:24.131Z,997.5
2019-03-10T11:08:24.150Z,997.42
2019-03-10T11:09:24.188Z,997.39
2019-03-10T11:10:24.188Z,997.41
2019-03-10T11:11:24.206Z,997.36
2019-03-10T11:12:24.225Z,997.41
2019-03-10T11:13:24.247Z,997.36
2019-03-10T11:14:24.265Z,997.32
2019-03-10T11:15:24.282Z,997.27
2019-03-10T11:16:24.299Z,997.25
2019-03-10T11:17:24.318Z,997.16
2019-03-10T11:18:24.336Z,997.1
2019-03-10T11:20:24.372Z,996.99
2019-03-10T11:21:24.392Z,996.97
2019-03-10T11:22:24.750Z,996.95
2019-03-10T11:23:24.428Z,997
2019-03-10T11:24:24.452Z,996.93
2019-03-10T11:25:24.466Z,996.98
2019-03-10T11:26:24.484Z,996.99
2019-03-10T11:27:24.506Z,996.91
2019-03-10T11:28:24.522Z,996.83
2019-03-10T11:29:24.541Z,996.77
2019-03-10T11:30:24.559Z,996.76
2019-03-10T11:31:24.579Z,996.78
2019-03-10T11:32:24.598Z,996.75
2019-03-10T11:33:24.615Z,996.75
2019-03-10T11:34:24.635Z,996.78
2019-03-10T11:36:24.673Z,996.75
2019-03-10T11:37:24.699Z,996.77
2019-03-10T11:38:24.710Z,996.81
2019-03-10T11:39:24.729Z,996.79
2019-03-10T11:40:24.747Z,996.81
2019-03-10T11:41:33.205Z,996.74
2019-03-10T11:42:24.787Z,996.74
2019-03-10T11:43:24.805Z,996.77
2019-03-10T11:44:24.823Z,996.77
2019-03-10T11:45:24.842Z,996.81
2019-03-10T11:46:24.861Z,996.75
2019-03-10T11:47:24.931Z,996.74
2019-03-10T11:48:24.898Z,996.7
2019-03-10T11:49:24.929Z,996.69
2019-03-10T11:50:24.936Z,996.65
2019-03-10T11:52:24.972Z,996.66
2019-03-10T11:53:25.809Z,996.61
2019-03-10T11:54:25.011Z,996.58
2019-03-10T11:55:25.091Z,996.55
2019-03-10T11:56:25.047Z,996.53
2019-03-10T11:57:25.065Z,996.52
2019-03-10T11:58:25.084Z,996.53
2019-03-10T11:59:25.102Z,996.48
2019-03-10T12:00:25.121Z,996.49
2019-03-10T12:01:25.142Z,996.39
2019-03-10T12:02:25.157Z,996.34
2019-03-10T12:03:25.176Z,996.33
2019-03-10T12:04:25.194Z,996.31
2019-03-10T12:05:25.213Z,996.26
2019-03-10T12:06:25.231Z,996.27
2019-03-10T12:08:25.267Z,996.22
2019-03-10T12:09:25.286Z,996.23
2019-03-10T12:10:25.303Z,996.19
2019-03-10T12:11:25.322Z,996.15
2019-03-10T12:12:25.340Z,996.15
2019-03-10T12:13:25.357Z,996.15
2019-03-10T12:14:25.376Z,996.1
2019-03-10T12:15:25.394Z,996.05
2019-03-10T12:16:25.412Z,996.03
2019-03-10T12:17:25.431Z,996.03
2019-03-10T12:18:25.449Z,995.95
2019-03-10T12:19:25.466Z,995.93
2019-03-10T12:20:25.484Z,995.93
2019-03-10T12:21:25.503Z,995.89
2019-03-10T12:23:25.539Z,995.94
2019-03-10T12:24:25.558Z,995.87
2019-03-10T12:25:25.575Z,995.89
2019-03-10T12:26:25.592Z,995.81
2019-03-10T12:27:25.612Z,995.8
2019-03-10T12:28:25.629Z,995.81
2019-03-10T12:29:25.646Z,995.75
2019-03-10T12:30:25.664Z,995.75
2019-03-10T12:31:25.681Z,995.72
2019-03-10T12:32:25.700Z,995.72
2019-03-10T12:33:25.717Z,995.66
2019-03-10T12:34:25.736Z,995.6
2019-03-10T12:35:33.801Z,995.58
2019-03-10T12:36:25.776Z,995.56
2019-03-10T12:37:25.789Z,995.53
2019-03-10T12:38:25.807Z,995.5
2019-03-10T12:39:25.824Z,995.42
2019-03-10T12:40:25.842Z,995.45
2019-03-10T12:41:25.861Z,995.42
2019-03-10T12:42:25.877Z,995.39
2019-03-10T12:43:25.895Z,995.36
2019-03-10T12:44:25.913Z,995.37
2019-03-10T12:45:25.931Z,995.33
2019-03-10T12:46:25.948Z,995.29
2019-03-10T12:47:25.967Z,995.24
2019-03-10T12:48:25.984Z,995.25
2019-03-10T12:49:26.003Z,995.22
2019-03-10T12:50:26.020Z,995.23
2019-03-10T12:51:26.038Z,995.26
2019-03-10T12:52:26.056Z,995.2
2019-03-10T12:53:26.073Z,995.22
2019-03-10T12:55:26.109Z,995.22
2019-03-10T12:56:26.127Z,995.19
2019-03-10T12:57:26.143Z,995.19